This is the latest recevied weather packets stored in our database for station/object N7IGG. If no packets are shown the sender has not sent any weather packets the latest 1 day(s).
| Time | Temp. | Humidity | Pressure | Rain* | Wind** | Luminosity | Snow |
|---|---|---|---|---|---|---|---|
| 1778017326 | 15° C | 82% | 1016.7 hPa | 0 mm | 0.89 m/s, 162° | 174 W/m² | - |
| 1778017023 | 15° C | 83% | 1016.7 hPa | 0 mm | 1.79 m/s, 233° | 158 W/m² | - |
| 1778016720 | 15° C | 82% | 1016.6 hPa | 0 mm | 1.34 m/s, 165° | 157 W/m² | - |
| 1778016416 | 15° C | 82% | 1016.7 hPa | 0 mm | 1.79 m/s, 194° | 160 W/m² | - |
| 1778016114 | 15° C | 82% | 1016.7 hPa | 0 mm | 1.79 m/s, 191° | 164 W/m² | - |
| 1778015811 | 15° C | 83% | 1016.5 hPa | 0 mm | 0.89 m/s, 180° | 161 W/m² | - |
| 1778015508 | 15° C | 83% | 1016.6 hPa | 0 mm | 2.24 m/s, 199° | 168 W/m² | - |
| 1778015204 | 15° C | 83% | 1016.7 hPa | 0 mm | 2.24 m/s, 198° | 163 W/m² | - |
| 1778014901 | 15° C | 83% | 1016.8 hPa | 0 mm | 1.34 m/s, 194° | 141 W/m² | - |
| 1778014599 | 15° C | 83% | 1016.8 hPa | 0 mm | 0.89 m/s, 166° | 150 W/m² | - |
| 1778014297 | 15° C | 83% | 1016.9 hPa | 0 mm | 0.89 m/s, 172° | 153 W/m² | - |
| 1778014003 | 15° C | 83% | 1016.9 hPa | 0 mm | 1.34 m/s, 180° | 142 W/m² | - |
| 1778013691 | 15° C | 83% | 1016.9 hPa | 0 mm | 1.34 m/s, 195° | 148 W/m² | - |
| 1778013387 | 15° C | 84% | 1016.9 hPa | 0 mm | 0.89 m/s, 119° | 148 W/m² | - |
| 1778013085 | 15° C | 83% | 1016.8 hPa | 0 mm | 1.34 m/s, 199° | 146 W/m² | - |
| 1778012780 | 14.44° C | 84% | 1016.6 hPa | 0 mm | 0 m/s | 155 W/m² | - |
| 1778012476 | 14.44° C | 84% | 1016.6 hPa | 0 mm | 0.89 m/s, 180° | 146 W/m² | - |
| 1778012173 | 14.44° C | 84% | 1016.9 hPa | 0 mm | 1.79 m/s, 166° | 152 W/m² | - |
| 1778011871 | 14.44° C | 84% | 1016.8 hPa | 0 mm | 0.89 m/s, 112° | 139 W/m² | - |
| 1778011569 | 14.44° C | 84% | 1016.8 hPa | 0 mm | 0 m/s | 141 W/m² | - |
| 1778011266 | 14.44° C | 85% | 1016.8 hPa | 0 mm | 0.89 m/s, 158° | 135 W/m² | - |
| 1778010962 | 14.44° C | 85% | 1016.8 hPa | 0 mm | 0.89 m/s, 156° | 127 W/m² | - |
| 1778010659 | 14.44° C | 85% | 1017 hPa | 0 mm | 0.89 m/s, 159° | 126 W/m² | - |
| 1778010356 | 14.44° C | 86% | 1016.9 hPa | 0 mm | 0.89 m/s, 128° | 130 W/m² | - |
| 1778010051 | 13.89° C | 86% | 1016.7 hPa | 0 mm | 0.89 m/s, 120° | 120 W/m² | - |
* Rain latest hour (hover to see other rain measurements)
** Current wind speed in m/s (hover to see current wind gust speed)